<?xml version="1.0" encoding="UTF-8"?>
<gpx version="1.1" creator="https://www.youtrack.es" xsi:schemaLocation="http://www.topografix.com/GPX/1/1 http://www.topografix.com/GPX/1/1/gpx.xsd http://www.garmin.com/xmlschemas/GpxExtensions/v3 http://www.garmin.com/xmlschemas/GpxExtensionsv3.xsd http://www.garmin.com/xmlschemas/TrackPointExtension/v1 http://www.garmin.com/xmlschemas/TrackPointExtensionv1.xsd" xmlns:gpxtpx="http://www.garmin.com/xmlschemas/TrackPointExtension/v1" xmlns:gpxx="http://www.garmin.com/xmlschemas/GpxExtensions/v3" xmlns:xsi="http://www.w3.org/2001/XMLSchema-instance">
  <metadata>
    <link href="https://www.youtrack.es">
      <text>YouTrack.es</text>
    </link>
    <time>2026-05-08T09:04:58Z</time>
  </metadata>
  <trk>
    <src>https://www.youtrack.es</src>
    <link href="https://www.youtrack.es/ruta/23564-01-divendres-7-igualada-pamplona">
      <text>YouTrack.es</text>
    </link>
    <trkseg>
      <trkpt lat="41.587954787537456" lon="1.620039660483599">
        <time>2018-06-27T17:55:45Z</time>
      </trkpt>
      <trkpt lat="41.635104166343808" lon="0.796028086915612">
        <time>2018-07-24T15:24:36Z</time>
      </trkpt>
      <trkpt lat="41.649452392011881" lon="0.557827642187476">
        <time>2018-06-27T17:57:19Z</time>
      </trkpt>
      <trkpt lat="41.877356925979257" lon="0.245782630518079">
        <time>2018-07-24T15:27:27Z</time>
      </trkpt>
      <trkpt lat="41.88772039487958" lon="0.233042305335402">
        <time>2018-07-24T15:27:37Z</time>
      </trkpt>
      <trkpt lat="41.958627188578248" lon="0.17501606605947">
        <time>2018-07-24T15:27:49Z</time>
      </trkpt>
      <trkpt lat="41.987227750942111" lon="0.122839640825987">
        <time>2018-07-24T15:28:02Z</time>
      </trkpt>
      <trkpt lat="42.006823383271694" lon="0.083748875185847">
        <time>2018-07-24T15:28:14Z</time>
      </trkpt>
      <trkpt lat="42.032667640596628" lon="0.042119147256017">
        <time>2018-07-24T15:26:07Z</time>
      </trkpt>
      <trkpt lat="42.043899726122618" lon="0.017365207895637">
        <time>2018-07-24T15:28:25Z</time>
      </trkpt>
      <trkpt lat="42.048159157857299" lon="-0.010511996224523">
        <time>2018-07-24T15:28:38Z</time>
      </trkpt>
      <trkpt lat="42.077605873346329" lon="-0.066134724766016">
        <time>2018-07-24T15:28:51Z</time>
      </trkpt>
      <trkpt lat="42.114381473511457" lon="-0.23614545352757">
        <time>2018-07-24T15:29:05Z</time>
      </trkpt>
      <trkpt lat="42.1199069917202" lon="-0.292189121246338">
        <time>2018-07-24T15:29:20Z</time>
      </trkpt>
      <trkpt lat="42.126241279765964" lon="-0.29585980810225">
        <time>2018-07-24T15:29:45Z</time>
      </trkpt>
      <trkpt lat="42.142205536365509" lon="-0.349205089733005">
        <time>2018-07-24T15:29:58Z</time>
      </trkpt>
      <trkpt lat="42.160968594253063" lon="-0.417957985773683">
        <time>2018-07-24T15:30:11Z</time>
      </trkpt>
      <trkpt lat="42.151456056162715" lon="-0.424874061718583">
        <time>2018-07-24T15:30:32Z</time>
      </trkpt>
      <trkpt lat="42.149194618687034" lon="-0.427127117291093">
        <time>2018-07-24T15:30:42Z</time>
      </trkpt>
      <trkpt lat="42.165376720950007" lon="-0.46157481148839">
        <time>2018-07-24T15:31:00Z</time>
      </trkpt>
      <trkpt lat="42.246418744325638" lon="-0.646986532956362">
        <time>2018-07-24T15:31:19Z</time>
      </trkpt>
      <trkpt lat="42.274453109130263" lon="-0.685653677210212">
        <time>2018-07-24T15:32:06Z</time>
      </trkpt>
      <trkpt lat="42.281414698809385" lon="-0.698072975501418">
        <time>2018-07-24T15:31:46Z</time>
      </trkpt>
      <trkpt lat="42.301450297236443" lon="-0.737404972314835">
        <time>2018-07-24T15:31:30Z</time>
      </trkpt>
      <trkpt lat="42.423414615914226" lon="-0.794191025197506">
        <time>2018-07-24T15:32:21Z</time>
      </trkpt>
      <trkpt lat="42.480810368433595" lon="-0.804668068885803">
        <time>2018-07-24T15:32:35Z</time>
      </trkpt>
      <trkpt lat="42.52195562236011" lon="-0.809412728995085">
        <time>2018-07-24T15:32:46Z</time>
      </trkpt>
      <trkpt lat="42.554015563800931" lon="-0.78669274225831">
        <time>2018-07-24T15:33:05Z</time>
      </trkpt>
      <trkpt lat="42.557914573699236" lon="-0.786943947896361">
        <time>2018-07-24T15:33:14Z</time>
      </trkpt>
      <trkpt lat="42.602770160883665" lon="-0.865527391433716">
        <time>2018-07-24T15:33:26Z</time>
      </trkpt>
      <trkpt lat="42.624076623469591" lon="-1.011299584060907">
        <time>2018-07-24T15:33:44Z</time>
      </trkpt>
      <trkpt lat="42.611001105979085" lon="-1.044693337753415">
        <time>2018-07-24T15:33:58Z</time>
      </trkpt>
      <trkpt lat="42.614164603874087" lon="-1.075484761968255">
        <time>2018-07-24T15:34:09Z</time>
      </trkpt>
      <trkpt lat="42.620755210518837" lon="-1.115567022934556">
        <time>2018-07-24T15:34:20Z</time>
      </trkpt>
      <trkpt lat="42.622257079929113" lon="-1.115667270496488">
        <time>2018-07-24T15:34:27Z</time>
      </trkpt>
      <trkpt lat="42.624182738363743" lon="-1.233124304562807">
        <time>2018-07-24T15:34:39Z</time>
      </trkpt>
      <trkpt lat="42.6391033641994" lon="-1.335232984274626">
        <time>2018-07-24T15:34:49Z</time>
      </trkpt>
      <trkpt lat="42.660316452383995" lon="-1.380245229229331">
        <time>2018-07-24T15:35:01Z</time>
      </trkpt>
      <trkpt lat="42.699511488899589" lon="-1.486369594931603">
        <time>2018-07-24T15:35:11Z</time>
      </trkpt>
      <trkpt lat="42.75164382532239" lon="-1.608667932450771">
        <time>2018-07-24T15:35:27Z</time>
      </trkpt>
      <trkpt lat="42.755228681489825" lon="-1.618514908477664">
        <time>2018-06-27T17:59:02Z</time>
      </trkpt>
      <trkpt lat="42.786356806755066" lon="-1.636867923662067">
        <time>2018-07-24T15:45:01Z</time>
      </trkpt>
      <trkpt lat="42.804742259904742" lon="-1.658648466691375">
        <time>2018-07-24T15:45:11Z</time>
      </trkpt>
      <trkpt lat="42.812561402097344" lon="-1.669589783996344">
        <time>2018-07-24T15:45:20Z</time>
      </trkpt>
      <trkpt lat="42.812990806996822" lon="-1.669033896178007">
        <time>2018-07-24T15:45:26Z</time>
      </trkpt>
      <trkpt lat="42.812533909454942" lon="-1.665634196251631">
        <time>2018-07-24T15:45:35Z</time>
      </trkpt>
      <trkpt lat="42.811703681945801" lon="-1.663806438446045">
        <time>2018-07-24T15:44:03Z</time>
      </trkpt>
      <trkpt lat="42.811703681945801" lon="-1.663806438446045">
        <time>2018-07-24T15:46:59Z</time>
      </trkpt>
      <trkpt lat="42.824213169515133" lon="-1.670459322631359">
        <time>2018-07-24T15:48:16Z</time>
      </trkpt>
      <trkpt lat="42.832937389612198" lon="-1.67362567037344">
        <time>2018-07-24T15:48:27Z</time>
      </trkpt>
      <trkpt lat="42.841144194826484" lon="-1.681723091751337">
        <time>2018-07-24T15:48:36Z</time>
      </trkpt>
      <trkpt lat="42.843665471300483" lon="-1.682287026196718">
        <time>2018-07-24T15:48:43Z</time>
      </trkpt>
      <trkpt lat="42.850515833124518" lon="-1.691404273733497">
        <time>2018-07-24T15:48:52Z</time>
      </trkpt>
      <trkpt lat="42.876550611108541" lon="-1.748818214982748">
        <time>2018-07-24T15:49:04Z</time>
      </trkpt>
      <trkpt lat="42.883306173607707" lon="-1.76652473397553">
        <time>2018-07-24T15:49:13Z</time>
      </trkpt>
      <trkpt lat="42.89102372713387" lon="-1.776793571189046">
        <time>2018-07-24T15:49:20Z</time>
      </trkpt>
      <trkpt lat="42.900798534974456" lon="-1.794350557029247">
        <time>2018-07-24T15:50:33Z</time>
      </trkpt>
      <trkpt lat="42.903760951012373" lon="-1.797639867290855">
        <time>2018-07-24T15:49:31Z</time>
      </trkpt>
      <trkpt lat="42.922529792413116" lon="-1.831323383376002">
        <time>2018-07-24T15:50:48Z</time>
      </trkpt>
      <trkpt lat="42.971818735823035" lon="-1.844482887536287">
        <time>2018-07-24T15:51:02Z</time>
      </trkpt>
      <trkpt lat="43.013348886743188" lon="-1.900910027325153">
        <time>2018-07-24T15:52:00Z</time>
      </trkpt>
      <trkpt lat="43.012946387752891" lon="-1.90286292694509">
        <time>2018-07-24T15:52:12Z</time>
      </trkpt>
      <trkpt lat="43.021866073831916" lon="-1.906333034858108">
        <time>2018-07-24T15:52:24Z</time>
      </trkpt>
      <trkpt lat="43.033414576202631" lon="-1.913099074736238">
        <time>2018-06-27T18:14:54Z</time>
      </trkpt>
      <trkpt lat="43.048558831214905" lon="-1.916245305910707">
        <time>2018-07-24T15:52:51Z</time>
      </trkpt>
      <trkpt lat="43.082727156579494" lon="-1.916951145976782">
        <time>2018-07-24T15:53:40Z</time>
      </trkpt>
      <trkpt lat="43.114215703681111" lon="-1.960677104070783">
        <time>2018-07-24T15:54:18Z</time>
      </trkpt>
      <trkpt lat="43.143869619816542" lon="-1.985513269901276">
        <time>2018-07-24T15:54:36Z</time>
      </trkpt>
      <trkpt lat="43.178518060594797" lon="-2.015634728595614">
        <time>2018-07-24T15:54:48Z</time>
      </trkpt>
      <trkpt lat="43.198943668976426" lon="-2.037047892808914">
        <time>2018-07-24T15:55:38Z</time>
      </trkpt>
      <trkpt lat="43.234941093251109" lon="-2.027880437672138">
        <time>2018-07-24T15:55:52Z</time>
      </trkpt>
      <trkpt lat="43.265954805538058" lon="-2.01702612452209">
        <time>2018-07-24T15:56:13Z</time>
      </trkpt>
      <trkpt lat="43.273840751498938" lon="-2.016769219189882">
        <time>2018-07-24T15:56:23Z</time>
      </trkpt>
      <trkpt lat="43.276677941903472" lon="-2.021754691377282">
        <time>2018-07-24T15:56:32Z</time>
      </trkpt>
      <trkpt lat="43.275285288691521" lon="-2.031695544719696">
        <time>2018-07-24T15:57:07Z</time>
      </trkpt>
      <trkpt lat="43.271511420607567" lon="-2.043455103412271">
        <time>2018-06-27T18:16:09Z</time>
      </trkpt>
      <trkpt lat="43.273085122928023" lon="-2.074127336964011">
        <time>2018-07-24T15:57:32Z</time>
      </trkpt>
      <trkpt lat="43.27724271453917" lon="-2.117180563509464">
        <time>2018-07-24T15:58:01Z</time>
      </trkpt>
      <trkpt lat="43.274353556334972" lon="-2.126613724976778">
        <time>2018-07-24T15:58:09Z</time>
      </trkpt>
      <trkpt lat="43.274842221289873" lon="-2.140379073098302">
        <time>2018-07-24T15:58:18Z</time>
      </trkpt>
      <trkpt lat="43.281414387747645" lon="-2.147821700200439">
        <time>2018-06-27T18:05:10Z</time>
      </trkpt>
      <trkpt lat="43.288375893607736" lon="-2.178818648681045">
        <time>2018-07-24T15:58:29Z</time>
      </trkpt>
      <trkpt lat="43.296259827911854" lon="-2.192428596317768">
        <time>2018-07-24T15:58:38Z</time>
      </trkpt>
      <trkpt lat="43.301969161257148" lon="-2.203516932204366">
        <time>2018-07-24T16:02:09Z</time>
      </trkpt>
      <trkpt lat="43.308065822347999" lon="-2.215625764802098">
        <time>2018-07-24T15:59:02Z</time>
      </trkpt>
      <trkpt lat="43.309799786657095" lon="-2.229832503944635">
        <time>2018-07-24T16:01:56Z</time>
      </trkpt>
      <trkpt lat="43.293928736820817" lon="-2.252111854031682">
        <time>2018-07-24T16:02:23Z</time>
      </trkpt>
      <trkpt lat="43.291802499443293" lon="-2.253211978822947">
        <time>2018-07-24T16:02:30Z</time>
      </trkpt>
      <trkpt lat="43.286506561562419" lon="-2.255341485142708">
        <time>2018-06-27T18:06:00Z</time>
      </trkpt>
      <trkpt lat="43.275768756866455" lon="-2.273304658010602">
        <time>2018-07-24T16:02:59Z</time>
      </trkpt>
      <trkpt lat="43.281146250665188" lon="-2.295361552387476">
        <time>2018-07-24T16:03:07Z</time>
      </trkpt>
      <trkpt lat="43.279630467295647" lon="-2.301708580926061">
        <time>2018-07-24T16:03:14Z</time>
      </trkpt>
      <trkpt lat="43.280991520732641" lon="-2.317573428153992">
        <time>2018-07-24T16:03:39Z</time>
      </trkpt>
      <trkpt lat="43.27856102026999" lon="-2.329112458974123">
        <time>2018-07-24T16:03:47Z</time>
      </trkpt>
      <trkpt lat="43.280481062829494" lon="-2.335970280691981">
        <time>2018-06-27T18:06:38Z</time>
      </trkpt>
      <trkpt lat="43.294308185577393" lon="-2.341525554656982">
        <time>2018-07-24T16:04:08Z</time>
      </trkpt>
      <trkpt lat="43.293887581676245" lon="-2.355260057374835">
        <time>2018-07-24T16:04:27Z</time>
      </trkpt>
      <trkpt lat="43.291130689904094" lon="-2.36271483823657">
        <time>2018-07-24T16:04:41Z</time>
      </trkpt>
      <trkpt lat="43.29197776503861" lon="-2.359877815470099">
        <time>2018-06-27T18:07:13Z</time>
      </trkpt>
      <trkpt lat="43.305749148130417" lon="-2.369061782956123">
        <time>2018-07-24T16:05:23Z</time>
      </trkpt>
      <trkpt lat="43.305193595588207" lon="-2.384687829762697">
        <time>2018-07-24T16:05:36Z</time>
      </trkpt>
      <trkpt lat="43.308142013847828" lon="-2.400369280949235">
        <time>2018-07-24T16:06:05Z</time>
      </trkpt>
      <trkpt lat="43.318269532173872" lon="-2.412877595052123">
        <time>2018-07-24T16:06:32Z</time>
      </trkpt>
      <trkpt lat="43.319860249757767" lon="-2.419205093756318">
        <time>2018-06-27T18:08:32Z</time>
      </trkpt>
      <trkpt lat="43.319635363295674" lon="-2.420089216902852">
        <time>2018-07-24T16:06:22Z</time>
      </trkpt>
      <trkpt lat="43.328272243961692" lon="-2.421795269474387">
        <time>2018-06-27T18:08:47Z</time>
      </trkpt>
      <trkpt lat="43.334504775702953" lon="-2.454176070168614">
        <time>2018-07-24T16:06:45Z</time>
      </trkpt>
      <trkpt lat="43.336417358368635" lon="-2.463141772896051">
        <time>2018-07-24T16:06:54Z</time>
      </trkpt>
      <trkpt lat="43.348901029676199" lon="-2.47801604680717">
        <time>2018-07-24T16:07:05Z</time>
      </trkpt>
      <trkpt lat="43.357425006106496" lon="-2.48733420856297">
        <time>2018-06-27T18:09:15Z</time>
      </trkpt>
      <trkpt lat="43.36200462654233" lon="-2.488918555900455">
        <time>2018-07-24T16:07:22Z</time>
      </trkpt>
      <trkpt lat="43.360483646392822" lon="-2.498273849487305">
        <time>2018-07-24T16:07:31Z</time>
      </trkpt>
      <trkpt lat="43.360609626397491" lon="-2.499229470267892">
        <time>2018-07-24T16:07:36Z</time>
      </trkpt>
      <trkpt lat="43.363819560036063" lon="-2.51211890950799">
        <time>2018-07-24T16:07:47Z</time>
      </trkpt>
      <trkpt lat="43.365923250094056" lon="-2.559142056852579">
        <time>2018-06-27T18:10:12Z</time>
      </trkpt>
      <trkpt lat="43.370697498321533" lon="-2.576517071574926">
        <time>2018-07-24T16:09:11Z</time>
      </trkpt>
      <trkpt lat="43.38047138415277" lon="-2.591689908877015">
        <time>2018-07-24T16:09:00Z</time>
      </trkpt>
      <trkpt lat="43.38069710880518" lon="-2.631306471303105">
        <time>2018-07-24T16:10:00Z</time>
      </trkpt>
      <trkpt lat="43.366064401343465" lon="-2.640719264745712">
        <time>2018-07-24T16:09:41Z</time>
      </trkpt>
      <trkpt lat="43.359174728393555" lon="-2.64542855322361">
        <time>2018-07-24T16:09:50Z</time>
      </trkpt>
      <trkpt lat="43.345294296741486" lon="-2.653244426473975">
        <time>2018-06-27T18:12:51Z</time>
      </trkpt>
      <trkpt lat="43.328047692775726" lon="-2.663403628394008">
        <time>2018-07-24T16:10:18Z</time>
      </trkpt>
      <trkpt lat="43.322155214846134" lon="-2.678283266723156">
        <time>2018-06-27T18:13:12Z</time>
      </trkpt>
      <trkpt lat="43.357649892568588" lon="-2.687164815142751">
        <time>2018-07-24T16:10:39Z</time>
      </trkpt>
      <trkpt lat="43.404812850058079" lon="-2.700748443603516">
        <time>2018-07-24T16:10:58Z</time>
      </trkpt>
      <trkpt lat="43.416622783988714" lon="-2.720844056457281">
        <time>2018-06-27T18:13:36Z</time>
      </trkpt>
      <trkpt lat="43.424970405176282" lon="-2.733496958389878">
        <time>2018-07-24T16:11:14Z</time>
      </trkpt>
      <trkpt lat="43.441535141319036" lon="-2.753764148801565">
        <time>2018-07-24T16:11:29Z</time>
      </trkpt>
      <trkpt lat="43.438740279525518" lon="-2.781774206086993">
        <time>2018-07-24T16:11:37Z</time>
      </trkpt>
      <trkpt lat="43.440561080351472" lon="-2.778829475864768">
        <time>2018-06-27T18:19:12Z</time>
      </trkpt>
      <trkpt lat="43.412966849282384" lon="-2.827211916446686">
        <time>2018-07-24T16:12:03Z</time>
      </trkpt>
      <trkpt lat="43.419608669355512" lon="-2.831321060657501">
        <time>2018-07-24T16:12:10Z</time>
      </trkpt>
      <trkpt lat="43.418791266158223" lon="-2.860090350732207">
        <time>2018-07-24T16:12:22Z</time>
      </trkpt>
      <trkpt lat="43.386688744649291" lon="-2.87710745818913">
        <time>2018-07-24T16:12:46Z</time>
      </trkpt>
      <trkpt lat="43.384329406544566" lon="-2.878158800303936">
        <time>2018-07-24T16:12:53Z</time>
      </trkpt>
      <trkpt lat="43.396952133625746" lon="-2.905710367485881">
        <time>2018-07-24T16:13:14Z</time>
      </trkpt>
      <trkpt lat="43.402387630194426" lon="-2.940604398027062">
        <time>2018-06-27T18:21:20Z</time>
      </trkpt>
      <trkpt lat="43.397545656189322" lon="-2.945972168818116">
        <time>2018-07-24T16:13:55Z</time>
      </trkpt>
      <trkpt lat="43.404207760468125" lon="-2.967944238334894">
        <time>2018-07-24T16:14:03Z</time>
      </trkpt>
      <trkpt lat="43.38636327534914" lon="-2.983675645664334">
        <time>2018-06-27T18:21:48Z</time>
      </trkpt>
      <trkpt lat="43.367255050688982" lon="-3.002206021919847">
        <time>2018-07-24T16:14:34Z</time>
      </trkpt>
      <trkpt lat="43.336021900177002" lon="-2.999899154528976">
        <time>2018-07-24T16:14:21Z</time>
      </trkpt>
      <trkpt lat="43.319379882887006" lon="-2.974925357848406">
        <time>2018-07-24T16:14:54Z</time>
      </trkpt>
      <trkpt lat="43.307859376072884" lon="-2.962265750393271">
        <time>2018-06-27T18:24:25Z</time>
      </trkpt>
      <trkpt lat="43.295054007321596" lon="-2.976426891982555">
        <time>2018-08-05T11:01:15Z</time>
      </trkpt>
      <trkpt lat="43.284739907830954" lon="-2.992009939625859">
        <time>2018-08-05T11:01:28Z</time>
      </trkpt>
      <trkpt lat="43.330485820770264" lon="-3.076344039291143">
        <time>2018-08-05T11:01:44Z</time>
      </trkpt>
      <trkpt lat="43.343304265290499" lon="-3.143842918798327">
        <time>2018-08-05T11:01:55Z</time>
      </trkpt>
      <trkpt lat="43.354148352518678" lon="-3.172129662707448">
        <time>2018-08-05T11:02:05Z</time>
      </trkpt>
      <trkpt lat="43.361226115375757" lon="-3.186696320772171">
        <time>2018-08-05T11:02:23Z</time>
      </trkpt>
      <trkpt lat="43.361412277445197" lon="-3.187221363186836">
        <time>2018-08-05T11:02:30Z</time>
      </trkpt>
      <trkpt lat="43.363109361380339" lon="-3.189946403726935">
        <time>2018-08-05T11:02:37Z</time>
      </trkpt>
      <trkpt lat="43.3694127202034" lon="-3.207698436453939">
        <time>2018-08-05T11:02:50Z</time>
      </trkpt>
      <trkpt lat="43.370436821132898" lon="-3.2125857565552">
        <time>2018-08-05T11:02:58Z</time>
      </trkpt>
      <trkpt lat="43.372757434844971" lon="-3.211741447448731">
        <time>2018-08-05T11:00:11Z</time>
      </trkpt>
      <trkpt lat="43.372757434844971" lon="-3.211741447448731">
        <time>2018-08-05T11:00:11Z</time>
      </trkpt>
      <trkpt lat="43.379655908793211" lon="-3.217088682577014">
        <time>2018-06-28T17:00:07Z</time>
      </trkpt>
      <trkpt lat="43.381005646660924" lon="-3.219871809706092">
        <time>2018-07-24T16:19:39Z</time>
      </trkpt>
      <trkpt lat="43.400629945099354" lon="-3.266749195754528">
        <time>2018-07-24T16:19:49Z</time>
      </trkpt>
      <trkpt lat="43.397358153015375" lon="-3.315558442845941">
        <time>2018-07-24T16:19:58Z</time>
      </trkpt>
      <trkpt lat="43.381848614662886" lon="-3.32276763394475">
        <time>2018-06-28T17:00:41Z</time>
      </trkpt>
      <trkpt lat="43.386084660887718" lon="-3.328524995595217">
        <time>2018-07-24T16:29:37Z</time>
      </trkpt>
      <trkpt lat="43.402825919911265" lon="-3.37493073195219">
        <time>2018-07-24T16:29:59Z</time>
      </trkpt>
      <trkpt lat="43.404414039105177" lon="-3.416579151526094">
        <time>2018-07-24T16:30:47Z</time>
      </trkpt>
      <trkpt lat="43.401892259716988" lon="-3.423767471686006">
        <time>2018-06-28T17:01:13Z</time>
      </trkpt>
      <trkpt lat="43.392017623409629" lon="-3.47333469428122">
        <time>2018-07-24T16:32:09Z</time>
      </trkpt>
      <trkpt lat="43.328950172290206" lon="-3.516889913007617">
        <time>2018-07-24T16:32:20Z</time>
      </trkpt>
      <trkpt lat="43.336810721084476" lon="-3.558280924335122">
        <time>2018-06-28T17:02:17Z</time>
      </trkpt>
      <trkpt lat="43.344375472515821" lon="-3.680816050618887">
        <time>2018-07-24T16:32:59Z</time>
      </trkpt>
      <trkpt lat="43.351949024945498" lon="-3.708119178190827">
        <time>2018-07-24T16:34:33Z</time>
      </trkpt>
      <trkpt lat="43.34649215452373" lon="-3.737356262281537">
        <time>2018-07-24T16:34:19Z</time>
      </trkpt>
      <trkpt lat="43.337733400985599" lon="-3.74418692663312">
        <time>2018-07-24T16:34:09Z</time>
      </trkpt>
      <trkpt lat="43.318354859948158" lon="-3.723042402416468">
        <time>2018-07-24T16:33:58Z</time>
      </trkpt>
      <trkpt lat="43.252355000004172" lon="-3.709876528009772">
        <time>2018-06-28T17:06:32Z</time>
      </trkpt>
      <trkpt lat="43.191921561956406" lon="-3.799905711784959">
        <time>2018-07-24T16:35:51Z</time>
      </trkpt>
      <trkpt lat="43.173508532345295" lon="-3.790488559752703">
        <time>2018-07-24T16:35:36Z</time>
      </trkpt>
      <trkpt lat="43.157200869172812" lon="-3.793621798977256">
        <time>2018-07-24T16:36:01Z</time>
      </trkpt>
      <trkpt lat="43.09293145313859" lon="-3.817489687353373">
        <time>2018-07-24T16:36:23Z</time>
      </trkpt>
      <trkpt lat="43.04477272555232" lon="-3.851245958358049">
        <time>2018-07-24T16:36:34Z</time>
      </trkpt>
      <trkpt lat="43.029305683448911" lon="-3.86489873751998">
        <time>2018-06-28T17:07:02Z</time>
      </trkpt>
      <trkpt lat="43.037912053987384" lon="-3.930057557299733">
        <time>2018-06-28T17:07:19Z</time>
      </trkpt>
      <trkpt lat="43.005113666877151" lon="-4.077613335102797">
        <time>2018-07-24T16:36:57Z</time>
      </trkpt>
      <trkpt lat="43.017393909394741" lon="-4.20956427231431">
        <time>2018-07-24T16:37:06Z</time>
      </trkpt>
      <trkpt lat="43.086752565577626" lon="-4.253287799656391">
        <time>2018-06-28T17:08:43Z</time>
      </trkpt>
      <trkpt lat="43.106968961656094" lon="-4.280165126547217">
        <time>2018-07-24T16:37:21Z</time>
      </trkpt>
      <trkpt lat="43.18015462718904" lon="-4.298718553036451">
        <time>2018-07-24T16:37:45Z</time>
      </trkpt>
      <trkpt lat="43.227512547746301" lon="-4.301465135067701">
        <time>2018-07-24T16:37:59Z</time>
      </trkpt>
      <trkpt lat="43.232706058770418" lon="-4.307889780029655">
        <time>2018-07-24T16:37:34Z</time>
      </trkpt>
      <trkpt lat="43.25585788115859" lon="-4.370618099346757">
        <time>2018-06-28T17:09:17Z</time>
      </trkpt>
      <trkpt lat="43.260181099176407" lon="-4.412411944940686">
        <time>2018-07-24T16:38:58Z</time>
      </trkpt>
      <trkpt lat="43.284902516752481" lon="-4.440507832914591">
        <time>2018-07-24T16:39:08Z</time>
      </trkpt>
      <trkpt lat="43.329404890537262" lon="-4.488945258781314">
        <time>2018-07-24T16:39:23Z</time>
      </trkpt>
      <trkpt lat="43.348493417724967" lon="-4.487457051873207">
        <time>2018-06-28T17:10:58Z</time>
      </trkpt>
      <trkpt lat="43.375138230621815" lon="-4.490589704364538">
        <time>2018-07-24T16:39:31Z</time>
      </trkpt>
      <trkpt lat="43.376718470826745" lon="-4.504984114319086">
        <time>2018-07-24T16:39:49Z</time>
      </trkpt>
      <trkpt lat="43.376357294619083" lon="-4.525851281359792">
        <time>2018-07-24T16:39:42Z</time>
      </trkpt>
      <trkpt lat="43.383375043049455" lon="-4.564360175281763">
        <time>2018-07-24T16:40:08Z</time>
      </trkpt>
      <trkpt lat="43.387605641037226" lon="-4.576924229040742">
        <time>2018-06-28T17:11:23Z</time>
      </trkpt>
      <trkpt lat="43.393662488088012" lon="-4.598647691309452">
        <time>2018-07-24T16:40:21Z</time>
      </trkpt>
      <trkpt lat="43.392219543457031" lon="-4.616124629974365">
        <time>2018-07-24T16:40:28Z</time>
      </trkpt>
      <trkpt lat="43.395842118188739" lon="-4.651071717962623">
        <time>2018-07-24T16:40:36Z</time>
      </trkpt>
      <trkpt lat="43.395673977211118" lon="-4.656712571159005">
        <time>2018-07-24T16:41:00Z</time>
      </trkpt>
      <trkpt lat="43.396318797022104" lon="-4.674959890544415">
        <time>2018-07-24T16:41:08Z</time>
      </trkpt>
      <trkpt lat="43.39698314666748" lon="-4.683201313018799">
        <time>2018-06-28T17:04:22Z</time>
      </trkpt>
      <trkpt lat="43.39698314666748" lon="-4.683201313018799">
        <time>2018-06-28T17:04:22Z</time>
      </trkpt>
      <trkpt lat="43.39549083262682" lon="-4.65832038782537">
        <time>2018-06-28T17:42:55Z</time>
      </trkpt>
      <trkpt lat="43.392304535955191" lon="-4.628033638000488">
        <time>2018-06-28T17:40:33Z</time>
      </trkpt>
      <trkpt lat="43.393419999629259" lon="-4.600234469398856">
        <time>2018-06-28T17:42:47Z</time>
      </trkpt>
      <trkpt lat="43.384687229990959" lon="-4.569141715764999">
        <time>2018-08-05T09:13:09Z</time>
      </trkpt>
      <trkpt lat="43.382552694529295" lon="-4.565704464912415">
        <time>2018-08-05T09:13:16Z</time>
      </trkpt>
      <trkpt lat="43.382382206618786" lon="-4.562866603955627">
        <time>2018-08-05T09:13:24Z</time>
      </trkpt>
      <trkpt lat="43.380025383085012" lon="-4.55193224363029">
        <time>2018-06-28T17:41:55Z</time>
      </trkpt>
      <trkpt lat="43.375777686014771" lon="-4.528734739869833">
        <time>2018-06-28T17:42:35Z</time>
      </trkpt>
      <trkpt lat="43.374855760484934" lon="-4.51897669583559">
        <time>2018-08-05T09:13:49Z</time>
      </trkpt>
      <trkpt lat="43.374191159382463" lon="-4.518076395615935">
        <time>2018-08-05T09:13:56Z</time>
      </trkpt>
      <trkpt lat="43.364677112549543" lon="-4.521378530189395">
        <time>2018-08-05T09:14:08Z</time>
      </trkpt>
      <trkpt lat="43.350423434749246" lon="-4.53389254398644">
        <time>2018-08-05T09:14:18Z</time>
      </trkpt>
      <trkpt lat="43.338321475312114" lon="-4.537939494475722">
        <time>2018-08-05T09:14:26Z</time>
      </trkpt>
      <trkpt lat="43.332820180803537" lon="-4.542853301391006">
        <time>2018-06-28T17:17:17Z</time>
      </trkpt>
      <trkpt lat="43.327097520232201" lon="-4.58316489122808">
        <time>2018-08-05T09:14:52Z</time>
      </trkpt>
      <trkpt lat="43.3205596357584" lon="-4.602633621543646">
        <time>2018-08-05T09:15:06Z</time>
      </trkpt>
      <trkpt lat="43.291154075413942" lon="-4.616617485880852">
        <time>2018-08-05T09:15:17Z</time>
      </trkpt>
      <trkpt lat="43.276952784508467" lon="-4.635438797995448">
        <time>2018-08-05T09:15:28Z</time>
      </trkpt>
      <trkpt lat="43.265317026525736" lon="-4.628206808120012">
        <time>2018-08-05T09:15:40Z</time>
      </trkpt>
      <trkpt lat="43.252731263637543" lon="-4.612742448225617">
        <time>2018-08-05T09:15:51Z</time>
      </trkpt>
      <trkpt lat="43.252530014142394" lon="-4.610790554434061">
        <time>2018-06-28T17:43:28Z</time>
      </trkpt>
      <trkpt lat="43.248655060306191" lon="-4.595842938870192">
        <time>2018-08-05T09:16:07Z</time>
      </trkpt>
      <trkpt lat="43.240253543481231" lon="-4.582259729504585">
        <time>2018-08-05T09:12:35Z</time>
      </trkpt>
      <trkpt lat="43.222492374479771" lon="-4.586542714387178">
        <time>2018-08-05T09:16:19Z</time>
      </trkpt>
      <trkpt lat="43.209040760993958" lon="-4.594482723623514">
        <time>2018-06-28T17:43:12Z</time>
      </trkpt>
      <trkpt lat="43.176875794306397" lon="-4.600167162716389">
        <time>2018-08-05T09:16:30Z</time>
      </trkpt>
      <trkpt lat="43.160307202488184" lon="-4.610851407051086">
        <time>2018-06-28T17:43:41Z</time>
      </trkpt>
      <trkpt lat="43.15502442419529" lon="-4.605900133028626">
        <time>2018-06-28T17:17:58Z</time>
      </trkpt>
      <trkpt lat="43.136873496696353" lon="-4.580432223156095">
        <time>2018-06-28T17:43:56Z</time>
      </trkpt>
      <trkpt lat="43.102986216545105" lon="-4.570368910208345">
        <time>2018-08-05T09:17:04Z</time>
      </trkpt>
      <trkpt lat="43.079906394705176" lon="-4.552295934408903">
        <time>2018-06-28T17:44:10Z</time>
      </trkpt>
      <trkpt lat="43.075502794235945" lon="-4.502069558948278">
        <time>2018-06-28T17:44:23Z</time>
      </trkpt>
      <trkpt lat="43.056431952863932" lon="-4.464184446260333">
        <time>2018-08-05T09:17:28Z</time>
      </trkpt>
      <trkpt lat="43.02639389410615" lon="-4.468465084210038">
        <time>2018-08-05T09:17:42Z</time>
      </trkpt>
      <trkpt lat="43.012032173573971" lon="-4.496408589184284">
        <time>2018-06-28T17:44:35Z</time>
      </trkpt>
      <trkpt lat="42.963971765711904" lon="-4.488304378464818">
        <time>2018-06-28T17:44:53Z</time>
      </trkpt>
      <trkpt lat="42.908168658614159" lon="-4.487809594720602">
        <time>2018-08-05T09:18:19Z</time>
      </trkpt>
      <trkpt lat="42.871530018746853" lon="-4.496232233941555">
        <time>2018-06-28T17:45:12Z</time>
      </trkpt>
      <trkpt lat="42.865429418161511" lon="-4.497731169685721">
        <time>2018-06-28T17:45:20Z</time>
      </trkpt>
      <trkpt lat="42.862093755975366" lon="-4.490887681022286">
        <time>2018-08-05T09:18:37Z</time>
      </trkpt>
      <trkpt lat="42.858848115429282" lon="-4.486797982826829">
        <time>2018-06-28T17:18:24Z</time>
      </trkpt>
      <trkpt lat="42.855901038274169" lon="-4.431342389434576">
        <time>2018-06-28T17:45:51Z</time>
      </trkpt>
      <trkpt lat="42.850958229973912" lon="-4.395006336271763">
        <time>2018-08-05T09:18:55Z</time>
      </trkpt>
      <trkpt lat="42.84780303016305" lon="-4.369630543515086">
        <time>2018-06-28T17:46:07Z</time>
      </trkpt>
      <trkpt lat="42.84431179985404" lon="-4.324981737881899">
        <time>2018-06-28T17:22:14Z</time>
      </trkpt>
      <trkpt lat="42.796337893232703" lon="-4.275151155889034">
        <time>2018-06-28T17:46:22Z</time>
      </trkpt>
      <trkpt lat="42.782529210671782" lon="-4.244333244860172">
        <time>2018-06-28T17:46:33Z</time>
      </trkpt>
      <trkpt lat="42.781165894120932" lon="-4.238301711156964">
        <time>2018-06-28T17:46:54Z</time>
      </trkpt>
      <trkpt lat="42.783510815352201" lon="-4.225352425128222">
        <time>2018-06-28T17:47:19Z</time>
      </trkpt>
      <trkpt lat="42.772951796650887" lon="-4.199919048696756">
        <time>2018-06-28T17:47:32Z</time>
      </trkpt>
      <trkpt lat="42.745471140369773" lon="-4.158663405105472">
        <time>2018-08-05T09:19:23Z</time>
      </trkpt>
      <trkpt lat="42.712141843512654" lon="-4.014782002195716">
        <time>2018-06-28T17:47:47Z</time>
      </trkpt>
      <trkpt lat="42.648185323923826" lon="-3.888086853548884">
        <time>2018-06-28T17:18:54Z</time>
      </trkpt>
      <trkpt lat="42.585432613268495" lon="-3.785222209990025">
        <time>2018-08-05T09:19:42Z</time>
      </trkpt>
      <trkpt lat="42.538547348231077" lon="-3.734455201774836">
        <time>2018-06-28T17:48:06Z</time>
      </trkpt>
      <trkpt lat="42.452291613444686" lon="-3.690265221521258">
        <time>2018-08-05T09:20:03Z</time>
      </trkpt>
      <trkpt lat="42.392145087942481" lon="-3.69706554338336">
        <time>2018-06-28T17:48:17Z</time>
      </trkpt>
      <trkpt lat="42.355667296797037" lon="-3.638009252026677">
        <time>2018-08-05T09:20:30Z</time>
      </trkpt>
      <trkpt lat="42.330800117924809" lon="-3.63827277906239">
        <time>2018-08-05T09:20:19Z</time>
      </trkpt>
      <trkpt lat="42.316961511969566" lon="-3.696271274238825">
        <time>2018-06-28T17:48:30Z</time>
      </trkpt>
      <trkpt lat="42.253718711435795" lon="-3.689268110319972">
        <time>2018-06-28T17:48:43Z</time>
      </trkpt>
      <trkpt lat="42.199262576177716" lon="-3.647250467911363">
        <time>2018-08-05T09:20:46Z</time>
      </trkpt>
      <trkpt lat="42.156041208654642" lon="-3.600134113803506">
        <time>2018-06-28T17:19:36Z</time>
      </trkpt>
      <trkpt lat="42.112723281607032" lon="-3.524312507361174">
        <time>2018-06-28T17:48:56Z</time>
      </trkpt>
      <trkpt lat="42.021746104583144" lon="-3.299064366146922">
        <time>2018-06-28T17:49:36Z</time>
      </trkpt>
      <trkpt lat="42.018994996324182" lon="-3.277074694633484">
        <time>2018-06-28T17:49:50Z</time>
      </trkpt>
      <trkpt lat="41.989256842061877" lon="-3.249332439154387">
        <time>2018-06-28T17:20:24Z</time>
      </trkpt>
      <trkpt lat="41.975778909400105" lon="-3.138953670859337">
        <time>2018-06-28T17:50:05Z</time>
      </trkpt>
      <trkpt lat="41.977362167090178" lon="-3.048255443572998">
        <time>2018-06-28T17:50:17Z</time>
      </trkpt>
      <trkpt lat="41.940878089517355" lon="-2.947061313316226">
        <time>2018-06-28T17:50:52Z</time>
      </trkpt>
      <trkpt lat="41.936423778533936" lon="-2.885112762451172">
        <time>2018-06-28T17:50:39Z</time>
      </trkpt>
      <trkpt lat="41.906243143603206" lon="-2.831067927181721">
        <time>2018-06-28T17:50:26Z</time>
      </trkpt>
      <trkpt lat="41.85977571643889" lon="-2.788918605074287">
        <time>2018-06-28T17:51:08Z</time>
      </trkpt>
      <trkpt lat="41.82205899618566" lon="-2.793053817003965">
        <time>2018-06-28T17:20:59Z</time>
      </trkpt>
      <trkpt lat="41.814421322196722" lon="-2.786623807623982">
        <time>2018-06-28T17:51:23Z</time>
      </trkpt>
      <trkpt lat="41.805700454860926" lon="-2.789484551176429">
        <time>2018-08-05T09:21:24Z</time>
      </trkpt>
      <trkpt lat="41.809110464528203" lon="-2.759275585412979">
        <time>2018-06-28T17:51:33Z</time>
      </trkpt>
      <trkpt lat="41.812894307076931" lon="-2.661454416811466">
        <time>2018-06-28T17:51:55Z</time>
      </trkpt>
      <trkpt lat="41.781881181523204" lon="-2.509385822340846">
        <time>2018-06-28T17:52:10Z</time>
      </trkpt>
      <trkpt lat="41.776826223358512" lon="-2.499540187418461">
        <time>2018-06-28T17:21:27Z</time>
      </trkpt>
      <trkpt lat="41.762809753417969" lon="-2.469863891601563">
        <time>2018-08-05T09:11:12Z</time>
      </trkpt>
      <trkpt lat="41.762809753417969" lon="-2.469863891601563">
        <time>2018-08-05T09:21:57Z</time>
      </trkpt>
      <trkpt lat="41.762055046856403" lon="-2.444377457723022">
        <time>2018-06-28T17:25:58Z</time>
      </trkpt>
      <trkpt lat="41.690924121066928" lon="-2.220368916168809">
        <time>2018-06-28T17:32:40Z</time>
      </trkpt>
      <trkpt lat="41.576123228296638" lon="-1.926213651895523">
        <time>2018-06-28T17:32:58Z</time>
      </trkpt>
      <trkpt lat="41.403899258002639" lon="-1.679553352296352">
        <time>2018-06-28T17:26:26Z</time>
      </trkpt>
      <trkpt lat="41.359046855941415" lon="-1.62010814063251">
        <time>2018-06-28T17:33:16Z</time>
      </trkpt>
      <trkpt lat="41.358819203451276" lon="-1.6156689170748">
        <time>2018-06-28T17:33:23Z</time>
      </trkpt>
      <trkpt lat="41.359231090173125" lon="-1.605535950511694">
        <time>2018-06-28T17:33:33Z</time>
      </trkpt>
      <trkpt lat="41.345741590484977" lon="-1.581003796309233">
        <time>2018-06-28T17:33:41Z</time>
      </trkpt>
      <trkpt lat="41.335628656670451" lon="-1.56201308593154">
        <time>2018-06-28T17:35:59Z</time>
      </trkpt>
      <trkpt lat="41.33451503701508" lon="-1.561036594212055">
        <time>2018-06-28T17:27:02Z</time>
      </trkpt>
      <trkpt lat="41.320201931521297" lon="-1.544866394251585">
        <time>2018-06-28T17:36:13Z</time>
      </trkpt>
      <trkpt lat="41.281397240236402" lon="-1.510175121948123">
        <time>2018-06-28T17:36:26Z</time>
      </trkpt>
      <trkpt lat="41.261140527203679" lon="-1.478363033384085">
        <time>2018-06-28T17:36:49Z</time>
      </trkpt>
      <trkpt lat="41.2623983155936" lon="-1.417237501591444">
        <time>2018-06-28T17:36:37Z</time>
      </trkpt>
      <trkpt lat="41.295698108151555" lon="-1.370536303147674">
        <time>2018-06-28T17:28:16Z</time>
      </trkpt>
      <trkpt lat="41.307522291317582" lon="-1.353029860183597">
        <time>2018-08-05T09:23:40Z</time>
      </trkpt>
      <trkpt lat="41.326997559517622" lon="-1.327575528994203">
        <time>2018-06-28T17:37:04Z</time>
      </trkpt>
      <trkpt lat="41.34045721963048" lon="-1.262798504903913">
        <time>2018-06-28T17:37:19Z</time>
      </trkpt>
      <trkpt lat="41.34014256298542" lon="-1.221766658127308">
        <time>2018-08-05T09:24:35Z</time>
      </trkpt>
      <trkpt lat="41.33907244540751" lon="-1.219667242839932">
        <time>2018-08-05T09:24:41Z</time>
      </trkpt>
      <trkpt lat="41.335351467132568" lon="-1.218903064727783">
        <time>2018-08-05T09:24:51Z</time>
      </trkpt>
      <trkpt lat="41.335449619218707" lon="-1.21366236358881">
        <time>2018-06-28T17:27:47Z</time>
      </trkpt>
      <trkpt lat="41.338843954727054" lon="-1.123244594782591">
        <time>2018-06-28T17:37:49Z</time>
      </trkpt>
      <trkpt lat="41.355292182415724" lon="-1.050210138782859">
        <time>2018-08-05T09:25:08Z</time>
      </trkpt>
      <trkpt lat="41.351891560479999" lon="-1.037366883829236">
        <time>2018-08-05T09:25:20Z</time>
      </trkpt>
      <trkpt lat="41.349177500233054" lon="-1.015640487894416">
        <time>2018-08-05T09:25:28Z</time>
      </trkpt>
      <trkpt lat="41.330173965543509" lon="-0.890528010204434">
        <time>2018-08-05T09:25:37Z</time>
      </trkpt>
      <trkpt lat="41.307043014094234" lon="-0.763923972845078">
        <time>2018-06-28T17:31:04Z</time>
      </trkpt>
      <trkpt lat="41.302382843568921" lon="-0.504116071388125">
        <time>2018-08-05T09:26:09Z</time>
      </trkpt>
      <trkpt lat="41.300937635824084" lon="-0.493308864533901">
        <time>2018-08-05T09:26:18Z</time>
      </trkpt>
      <trkpt lat="41.287887096405029" lon="-0.492522977292538">
        <time>2018-08-05T09:26:37Z</time>
      </trkpt>
      <trkpt lat="41.287478813901544" lon="-0.491659557446837">
        <time>2018-08-05T09:26:55Z</time>
      </trkpt>
      <trkpt lat="41.268305461853743" lon="-0.446529546752572">
        <time>2018-06-28T17:38:07Z</time>
      </trkpt>
      <trkpt lat="41.268670074641705" lon="-0.303503097966313">
        <time>2018-08-05T09:27:12Z</time>
      </trkpt>
      <trkpt lat="41.253310404717922" lon="-0.14919008128345">
        <time>2018-08-05T09:27:22Z</time>
      </trkpt>
      <trkpt lat="41.238649617880583" lon="-0.070244120433927">
        <time>2018-06-28T17:29:00Z</time>
      </trkpt>
      <trkpt lat="41.247386494651437" lon="0.009333081543446">
        <time>2018-08-05T09:27:37Z</time>
      </trkpt>
      <trkpt lat="41.303053479641676" lon="0.115898922085762">
        <time>2018-08-05T09:28:03Z</time>
      </trkpt>
      <trkpt lat="41.346925534307957" lon="0.250469204038382">
        <time>2018-08-05T09:28:15Z</time>
      </trkpt>
      <trkpt lat="41.357339294627309" lon="0.267678843811154">
        <time>2018-06-28T17:38:24Z</time>
      </trkpt>
      <trkpt lat="41.357884369790554" lon="0.292808711528778">
        <time>2018-08-05T09:28:26Z</time>
      </trkpt>
      <trkpt lat="41.361143589019775" lon="0.295270476490259">
        <time>2018-08-05T09:28:33Z</time>
      </trkpt>
      <trkpt lat="41.468616435304284" lon="0.338255306705832">
        <time>2018-06-28T17:38:36Z</time>
      </trkpt>
      <trkpt lat="41.50924863293767" lon="0.328780235722661">
        <time>2018-08-05T09:28:55Z</time>
      </trkpt>
      <trkpt lat="41.525320429354906" lon="0.392618654295802">
        <time>2018-06-28T17:29:32Z</time>
      </trkpt>
      <trkpt lat="41.664088368415833" lon="0.622325297445059">
        <time>2018-06-28T17:38:52Z</time>
      </trkpt>
      <trkpt lat="41.591078387573361" lon="1.611375706270337">
        <time>2018-06-28T17:30:16Z</time>
      </trkpt>
    </trkseg>
  </trk>
</gpx>
